Aviation Digital Data Service (ADDS)

Output produced by METARs form (0946 UTC 09 February 2016)
found at http://aviationweather.gov/adds/metars/
 
KPSM 090909Z 0909/1006 35009KT 3SM -SHSN BR OVC025 
     FM091300 36007KT P6SM OVC025